Time;durP1;ratioP1;P1;durP2;ratioP2;P2;SDS_P1;SDS_P2;PMS_P1;PMS_P2;Temp;Humidity;BMP_temperature;BMP_pressure;BME280_temperature;BME280_humidity;BME280_pressure;Samples;Min_cycle;Max_cycle;Signal;HPM_P1;HPM_P2
2023/08/25 00:01:30;;;;;;;;;7.75;7.00;;;;;-143.90;79.82;74438.38;4950434;28;102359;-75
2023/08/25 00:03:57;;;;;;;;;7.25;6.75;;;;;-143.90;79.25;74432.16;4950635;28;103997;-76
2023/08/25 00:06:24;;;;;;;;;6.00;6.00;;;;;-143.90;80.26;74438.38;4950911;28;101904;-75
2023/08/25 00:08:50;;;;;;;;;11.50;10.00;;;;;-143.90;81.82;74448.69;4955673;28;103983;-75
2023/08/25 00:11:17;;;;;;;;;9.25;8.75;;;;;-143.90;82.13;74461.09;4962336;28;104653;-75
2023/08/25 00:13:43;;;;;;;;;8.00;8.00;;;;;-143.90;82.31;74461.09;4949921;28;104338;-75
2023/08/25 00:16:10;;;;;;;;;7.25;6.75;;;;;-143.90;82.10;74456.97;4953168;28;102735;-75
2023/08/25 00:18:37;;;;;;;;;6.00;6.00;;;;;-143.90;81.57;74454.91;4961516;28;103162;-75
2023/08/25 00:21:04;;;;;;;;;5.50;5.50;;;;;-143.90;81.15;74452.84;4953287;28;102546;-75
2023/08/25 00:23:31;;;;;;;;;5.67;5.00;;;;;-143.90;80.32;74448.69;4965018;28;103990;-74
2023/08/25 00:25:57;;;;;;;;;6.00;6.00;;;;;-143.90;79.94;74442.50;4961319;28;102327;-75
2023/08/25 00:28:24;;;;;;;;;7.25;6.00;;;;;-143.90;79.22;74440.44;4955996;28;104078;-75
2023/08/25 00:30:51;;;;;;;;;7.25;7.00;;;;;-143.90;79.58;74444.56;4949920;27;102028;-74
2023/08/25 00:33:18;;;;;;;;;4.67;3.33;;;;;-143.90;79.64;74459.03;4944471;28;105451;-75
2023/08/25 00:35:44;;;;;;;;;7.00;5.25;;;;;-143.90;79.72;74444.56;4947953;28;102318;-75
2023/08/25 00:38:11;;;;;;;;;4.25;4.25;;;;;-143.90;79.48;74448.69;4966667;27;103376;-75
2023/08/25 00:40:38;;;;;;;;;7.50;6.75;;;;;-143.90;81.25;74465.22;4955293;28;103058;-75
2023/08/25 00:43:04;;;;;;;;;7.75;7.75;;;;;-143.90;81.65;74473.50;4955069;28;104040;-75
2023/08/25 00:45:37;;;;;;;;;6.00;6.00;;;;;-143.90;81.34;74479.69;4949891;28;102133;-75
2023/08/25 00:48:04;;;;;;;;;6.75;6.25;;;;;-143.90;81.39;74477.63;4949608;28;102594;-74
2023/08/25 00:50:32;;;;;;;;;5.00;5.00;;;;;-143.90;82.03;74475.56;4943731;28;102407;-75
2023/08/25 00:53:01;;;;;;;;;4.25;4.25;;;;;-143.90;82.75;74481.78;4951574;27;103586;-76
2023/08/25 00:55:28;;;;;;;;;8.50;7.50;;;;;-143.90;83.03;74475.56;4959170;27;104083;-77
2023/08/25 00:57:55;;;;;;;;;7.00;7.00;;;;;-143.90;82.89;74465.22;4969276;27;102229;-75
2023/08/25 01:00:22;;;;;;;;;5.50;5.00;;;;;-143.90;81.75;74452.84;4957427;28;102559;-75
2023/08/25 01:02:49;;;;;;;;;6.50;6.00;;;;;-143.90;81.90;74461.09;4960294;27;104268;-74
2023/08/25 01:05:16;;;;;;;;;7.75;7.75;;;;;-143.90;81.20;74459.03;4953342;28;102486;-75
2023/08/25 01:07:43;;;;;;;;;7.00;6.25;;;;;-143.90;81.14;74450.75;4941602;27;102351;-74
2023/08/25 01:10:11;;;;;;;;;6.00;6.00;;;;;-143.90;80.87;74450.75;4963330;27;104884;-75
2023/08/25 01:12:58;;;;;;;;;5.00;4.00;;;;;-143.90;80.44;74448.69;4951207;28;104178;-75
2023/08/25 01:15:29;;;;;;;;;4.25;4.25;;;;;-143.90;80.18;74448.69;4954280;28;102465;-75
2023/08/25 01:18:11;;;;;;;;;4.00;4.00;;;;;-143.90;80.60;74436.28;4942594;28;102418;-75
2023/08/25 01:20:39;;;;;;;;;4.00;4.00;;;;;-143.90;80.77;74452.84;4944529;28;102496;-75
2023/08/25 01:23:17;;;;;;;;;3.00;2.00;;;;;-143.90;80.67;74448.69;4958035;27;104081;-75
2023/08/25 01:25:46;;;;;;;;;4.00;4.00;;;;;-143.90;80.90;74448.69;4940409;28;102072;-74
2023/08/25 01:28:13;;;;;;;;;5.25;4.25;;;;;-143.90;80.79;74450.75;4951546;28;102520;-74
2023/08/25 01:30:39;;;;;;;;;4.25;4.00;;;;;-143.90;80.18;74448.69;4956733;27;103788;-74
2023/08/25 01:33:06;;;;;;;;;2.50;2.50;;;;;-143.90;80.53;74446.63;4951431;28;103996;-74
2023/08/25 01:36:00;;;;;;;;;2.00;2.00;;;;;-143.90;80.28;74444.56;4955584;28;102765;-75
2023/08/25 01:38:38;;;;;;;;;4.33;3.00;;;;;-143.90;79.53;74452.84;4961018;28;102821;-74
2023/08/25 01:41:13;;;;;;;;;2.00;1.00;;;;;-143.90;79.56;74452.84;4951183;28;102153;-74
2023/08/25 01:43:46;;;;;;;;;3.67;3.67;;;;;-143.90;79.38;74461.09;4956881;27;104370;-75
2023/08/25 01:46:15;;;;;;;;;4.00;4.00;;;;;-143.90;79.68;74459.03;4960964;27;102017;-75
2023/08/25 01:48:45;;;;;;;;;4.00;3.50;;;;;-143.90;79.49;74461.09;4946389;28;102414;-75
2023/08/25 01:51:16;;;;;;;;;5.00;4.75;;;;;-143.90;79.89;74459.03;4949775;28;102645;-75
2023/08/25 01:53:52;;;;;;;;;3.33;3.33;;;;;-143.90;80.42;74463.16;4937434;28;104407;-75
2023/08/25 01:56:19;;;;;;;;;4.00;4.00;;;;;-143.90;81.64;74465.22;4951696;28;102316;-74
2023/08/25 01:58:46;;;;;;;;;3.75;3.75;;;;;-143.90;81.95;74465.22;4944902;28;102211;-75
2023/08/25 02:01:13;;;;;;;;;6.25;4.00;;;;;-143.90;82.83;74465.22;4957900;28;102099;-74
2023/08/25 02:03:40;;;;;;;;;4.75;4.75;;;;;-143.90;82.83;74467.31;4951148;28;105732;-75
2023/08/25 02:06:10;;;;;;;;;2.00;2.00;;;;;-143.90;83.03;74463.16;4949156;28;102008;-75
2023/08/25 02:08:37;;;;;;;;;2.67;2.67;;;;;-143.90;82.44;74461.09;4949996;28;102376;-76
2023/08/25 02:11:04;;;;;;;;;3.00;3.00;;;;;-143.90;83.52;74461.09;4772284;28;5001079;-74
2023/08/25 02:13:31;;;;;;;;;4.75;4.75;;;;;-143.90;83.86;74465.22;4964651;28;102472;-75
2023/08/25 02:15:58;;;;;;;;;7.00;6.75;;;;;-143.90;84.00;74463.16;4957848;27;102057;-75
2023/08/25 02:18:24;;;;;;;;;7.75;7.75;;;;;-143.90;83.94;74469.38;4954535;28;102457;-74
2023/08/25 02:20:51;;;;;;;;;8.00;8.00;;;;;-143.90;83.92;74461.09;4957817;28;102354;-74
2023/08/25 02:23:18;;;;;;;;;7.00;7.00;;;;;-143.90;83.07;74461.09;4952748;27;103999;-75
2023/08/25 02:25:44;;;;;;;;;4.75;4.75;;;;;-143.90;83.29;74456.97;4947797;28;103155;-75
2023/08/25 02:28:11;;;;;;;;;5.75;5.00;;;;;-143.90;82.76;74465.22;4959201;28;102140;-74
2023/08/25 02:30:37;;;;;;;;;5.50;5.00;;;;;-143.90;82.85;74463.16;4954749;28;102086;-74
2023/08/25 02:33:04;;;;;;;;;4.67;4.00;;;;;-143.90;82.83;74459.03;4956262;28;103645;-73
2023/08/25 02:35:31;;;;;;;;;4.00;4.00;;;;;-143.90;81.70;74456.97;4960358;28;102134;-73
2023/08/25 02:38:02;;;;;;;;;4.75;4.75;;;;;-143.90;81.10;74452.84;4956617;28;102010;-73
2023/08/25 02:40:28;;;;;;;;;6.25;6.25;;;;;-143.90;80.49;74461.09;4954587;28;103741;-74
2023/08/25 02:42:56;;;;;;;;;9.25;8.00;;;;;-143.90;80.16;74459.03;4949779;28;104265;-74
2023/08/25 02:45:26;;;;;;;;;6.00;6.00;;;;;-143.90;80.71;74463.16;4950818;28;103953;-74
2023/08/25 02:47:54;;;;;;;;;5.00;4.75;;;;;-143.90;80.89;74463.16;4949863;28;102324;-74
2023/08/25 02:50:22;;;;;;;;;5.00;5.00;;;;;-143.90;81.37;74463.16;4946378;28;102365;-74
2023/08/25 02:52:49;;;;;;;;;4.33;3.00;;;;;-143.90;81.61;74465.22;4955801;28;104717;-74
2023/08/25 02:55:19;;;;;;;;;4.25;4.00;;;;;-143.90;81.97;74461.09;4957665;28;104441;-74
2023/08/25 02:57:46;;;;;;;;;4.00;3.33;;;;;-143.90;82.60;74456.97;4942888;27;102483;-74
2023/08/25 03:00:16;;;;;;;;;4.00;4.00;;;;;-143.90;82.36;74448.69;4602709;28;9999869;-74
2023/08/25 03:02:43;;;;;;;;;4.00;3.67;;;;;-143.90;82.15;74442.50;4958225;28;101933;-73
2023/08/25 03:05:10;;;;;;;;;4.50;4.50;;;;;-143.90;82.20;74442.50;4944677;28;106100;-74
2023/08/25 03:07:36;;;;;;;;;4.00;4.00;;;;;-143.90;82.53;74440.44;4953053;28;102010;-77
2023/08/25 03:10:03;;;;;;;;;3.00;3.00;;;;;-143.90;82.68;74440.44;4950802;28;102683;-73
2023/08/25 03:12:30;;;;;;;;;4.00;3.75;;;;;-143.90;83.31;74436.28;4955786;28;102657;-73
2023/08/25 03:14:56;;;;;;;;;4.25;3.75;;;;;-143.90;82.88;74432.16;4966679;28;104017;-75
2023/08/25 03:17:23;;;;;;;;;4.00;3.50;;;;;-143.90;82.41;74428.03;4948828;27;102015;-74
2023/08/25 03:19:50;;;;;;;;;4.50;4.50;;;;;-143.90;82.51;74423.88;4943448;28;101825;-74
2023/08/25 03:22:16;;;;;;;;;2.67;2.67;;;;;-143.90;82.58;74423.88;4957678;28;103936;-74
2023/08/25 03:24:43;;;;;;;;;6.75;6.00;;;;;-143.90;82.50;74423.88;4957833;28;104115;-74
2023/08/25 03:27:10;;;;;;;;;5.75;5.50;;;;;-143.90;82.46;74425.97;4950377;27;102358;-74
2023/08/25 03:29:36;;;;;;;;;7.00;6.00;;;;;-143.90;82.17;74421.81;4947686;28;102416;-75
2023/08/25 03:32:03;;;;;;;;;8.25;8.00;;;;;-143.90;81.80;74419.75;4950011;27;102381;-74
2023/08/25 03:34:30;;;;;;;;;23.25;23.00;;;;;-143.90;80.90;74434.22;4944557;28;104149;-73
2023/08/25 03:36:56;;;;;;;;;25.25;22.75;;;;;-143.90;80.74;74432.16;4951697;28;102031;-74
2023/08/25 03:39:24;;;;;;;;;18.00;16.00;;;;;-143.90;81.62;74436.28;4946925;27;102985;-73
2023/08/25 03:41:50;;;;;;;;;21.25;19.50;;;;;-143.90;83.15;74459.03;4953997;28;102643;-74
2023/08/25 03:44:17;;;;;;;;;13.75;12.25;;;;;-143.90;83.36;74450.75;4945310;28;103642;-73
2023/08/25 03:46:45;;;;;;;;;12.00;11.00;;;;;-143.90;83.26;74448.69;4956863;27;102184;-74
2023/08/25 03:49:11;;;;;;;;;20.75;20.75;;;;;-143.90;82.06;74446.63;4946859;27;103512;-74
2023/08/25 03:51:38;;;;;;;;;21.50;21.00;;;;;-143.90;82.18;74432.16;4944915;28;102558;-74
2023/08/25 03:54:06;;;;;;;;;17.00;15.50;;;;;-143.90;83.12;74419.75;4960918;27;104190;-74
2023/08/25 03:56:32;;;;;;;;;13.50;13.25;;;;;-143.90;84.51;74423.88;4960141;28;102355;-74
2023/08/25 03:58:59;;;;;;;;;11.25;11.00;;;;;-143.90;84.19;74428.03;4953055;28;102753;-74
2023/08/25 04:01:26;;;;;;;;;8.25;7.50;;;;;-143.90;84.41;74415.63;4953829;28;104508;-73
2023/08/25 04:03:52;;;;;;;;;8.75;8.75;;;;;-143.90;84.02;74407.34;4943490;28;104557;-74
2023/08/25 04:06:19;;;;;;;;;7.75;7.00;;;;;-143.90;84.22;74403.22;4950740;27;102545;-74
2023/08/25 04:08:45;;;;;;;;;10.00;9.50;;;;;-143.90;84.19;74399.09;4960217;28;102689;-74
2023/08/25 04:11:12;;;;;;;;;11.00;10.00;;;;;-143.90;84.14;74390.81;4949518;28;102297;-74
2023/08/25 04:13:39;;;;;;;;;8.25;8.25;;;;;-143.90;84.54;74382.56;4948285;28;104558;-76
2023/08/25 04:16:06;;;;;;;;;8.00;7.00;;;;;-143.90;84.02;74372.22;4945927;28;104800;-76
2023/08/25 04:18:32;;;;;;;;;9.75;9.75;;;;;-143.90;83.52;74368.09;4959516;28;102003;-73
2023/08/25 04:20:59;;;;;;;;;8.25;8.00;;;;;-143.90;83.54;74370.16;4949329;28;102363;-73
2023/08/25 04:23:26;;;;;;;;;9.25;9.00;;;;;-143.90;83.38;74359.81;4944425;28;103941;-74
2023/08/25 04:25:53;;;;;;;;;10.25;10.00;;;;;-143.90;83.54;74349.47;4947378;28;102312;-74
2023/08/25 04:28:20;;;;;;;;;12.75;11.75;;;;;-143.90;83.71;74345.34;4955555;28;102716;-73
2023/08/25 04:30:46;;;;;;;;;13.25;12.25;;;;;-143.90;83.45;74341.22;4953583;28;103319;-75
2023/08/25 04:33:13;;;;;;;;;16.25;12.50;;;;;-143.90;83.09;74332.94;4944231;28;103650;-74
2023/08/25 04:35:40;;;;;;;;;12.25;12.00;;;;;-143.90;81.84;74320.53;4946322;28;102326;-76
2023/08/25 04:38:06;;;;;;;;;11.00;11.00;;;;;-143.90;81.13;74320.53;4956388;28;101896;-76
2023/08/25 04:40:33;;;;;;;;;11.25;10.75;;;;;-143.90;81.69;74314.34;4946540;28;102291;-75
2023/08/25 04:43:00;;;;;;;;;15.75;12.75;;;;;-143.90;81.42;74304.00;4952778;28;104436;-73
2023/08/25 04:45:27;;;;;;;;;12.00;11.00;;;;;-143.90;81.62;74283.34;4952698;28;102107;-75
2023/08/25 04:47:54;;;;;;;;;13.75;11.75;;;;;-143.90;82.20;74264.72;4952757;28;102386;-73
2023/08/25 04:50:21;;;;;;;;;16.75;16.00;;;;;-143.90;80.86;74246.13;4946795;28;102678;-73
2023/08/25 04:52:48;;;;;;;;;12.00;11.00;;;;;-143.90;81.01;74221.31;4949748;27;103917;-74
2023/08/25 04:55:14;;;;;;;;;13.25;13.00;;;;;-143.90;81.02;74204.78;4951639;27;102727;-75
2023/08/25 04:57:41;;;;;;;;;11.67;10.33;;;;;-143.90;80.54;74180.00;4965871;28;105805;-75
2023/08/25 05:00:09;;;;;;;;;10.33;9.67;;;;;-143.90;81.06;74167.59;4934896;28;102326;-77
2023/08/25 05:02:35;;;;;;;;;14.00;13.00;;;;;-143.90;82.06;74155.19;4967411;28;104138;-77
2023/08/25 05:05:05;;;;;;;;;12.00;11.33;;;;;-143.90;82.24;74130.38;4959409;27;102407;-76
2023/08/25 05:07:31;;;;;;;;;10.00;9.67;;;;;-143.90;82.01;74109.72;4971430;28;104058;-77
2023/08/25 05:09:58;;;;;;;;;8.00;7.00;;;;;-143.90;81.36;74080.78;4968905;28;102432;-76
2023/08/25 05:12:27;;;;;;;;;6.67;6.67;;;;;-143.90;79.48;74064.25;4952614;27;104130;-77
2023/08/25 05:14:54;;;;;;;;;6.00;6.00;;;;;-143.90;79.99;74047.72;4963338;28;102306;-77
2023/08/25 05:17:21;;;;;;;;;5.00;4.33;;;;;-143.90;80.87;74027.03;4964567;27;102065;-77
2023/08/25 05:19:49;;;;;;;;;5.00;4.67;;;;;-143.90;79.12;74012.56;4964007;27;102117;-75
2023/08/25 05:22:15;;;;;;;;;4.00;4.00;;;;;-143.90;77.05;74000.19;4951984;28;103805;-75
2023/08/25 05:24:42;;;;;;;;;3.33;3.00;;;;;-143.90;76.61;73981.56;4947574;28;102634;-75
2023/08/25 05:27:09;;;;;;;;;5.00;4.67;;;;;-143.90;75.28;73965.03;4959603;28;103352;-75
2023/08/25 05:29:36;;;;;;;;;2.00;2.00;;;;;-143.90;74.37;73956.78;4957585;28;101976;-75
2023/08/25 05:32:03;;;;;;;;;3.00;3.00;;;;;-143.90;73.23;73958.84;4973169;27;103887;-75
2023/08/25 05:34:31;;;;;;;;;1.67;1.67;;;;;-143.90;72.12;73954.72;4959331;27;102514;-75
2023/08/25 05:36:57;;;;;;;;;3.67;3.67;;;;;-143.90;71.83;73944.38;4957349;27;102110;-75
2023/08/25 05:39:24;;;;;;;;;5.00;4.33;;;;;-143.90;72.67;73934.03;4962000;28;101868;-75
2023/08/25 05:41:51;;;;;;;;;4.00;4.00;;;;;-143.90;72.07;73917.50;4960778;27;104216;-75
2023/08/25 05:44:17;;;;;;;;;8.00;7.00;;;;;-143.90;71.63;73911.31;4954892;27;102004;-75
2023/08/25 05:46:44;;;;;;;;;4.33;4.33;;;;;-143.90;71.65;73903.03;4955498;27;102830;-75
2023/08/25 05:49:11;;;;;;;;;5.00;5.00;;;;;-143.90;73.03;73890.63;4958201;27;104214;-77
2023/08/25 05:51:37;;;;;;;;;5.67;5.00;;;;;-143.90;72.02;73884.44;4958212;28;109369;-75
2023/08/25 05:54:04;;;;;;;;;3.00;3.00;;;;;-143.90;71.52;73878.25;4948371;28;102302;-75
2023/08/25 05:56:31;;;;;;;;;5.33;4.00;;;;;-143.90;71.46;73878.25;4952651;28;102351;-76
2023/08/25 05:59:00;;;;;;;;;3.00;3.00;;;;;-143.90;70.94;73869.97;4963061;28;102408;-75
2023/08/25 06:01:28;;;;;;;;;2.33;2.33;;;;;-143.90;70.82;73872.03;4952669;28;104050;-75
2023/08/25 06:03:58;;;;;;;;;3.00;3.00;;;;;-143.90;70.42;73863.78;4944819;28;102657;-76
2023/08/25 06:06:25;;;;;;;;;2.00;2.00;;;;;-143.90;70.24;73851.38;4945659;28;102565;-75
2023/08/25 06:08:51;;;;;;;;;3.00;3.00;;;;;-143.90;71.23;73830.69;4936635;28;102396;-75
2023/08/25 06:11:18;;;;;;;;;2.33;2.33;;;;;-143.90;70.73;73810.03;4951762;28;103136;-75
2023/08/25 06:13:45;;;;;;;;;1.33;1.00;;;;;-143.90;69.02;73783.16;4946147;28;102048;-76
2023/08/25 06:16:11;;;;;;;;;2.33;2.33;;;;;-143.90;69.22;73768.69;4952270;28;102159;-75
2023/08/25 06:18:38;;;;;;;;;2.00;2.00;;;;;-143.90;68.95;73754.25;4957071;28;102167;-75
2023/08/25 06:21:05;;;;;;;;;1.00;1.00;;;;;-143.90;68.94;73743.91;4955033;27;103968;-75
2023/08/25 06:23:31;;;;;;;;;3.00;3.00;;;;;-143.90;66.60;73737.69;4964169;27;102958;-75
2023/08/25 06:25:59;;;;;;;;;5.67;5.00;;;;;-143.90;69.99;73731.50;4955219;28;102495;-77
2023/08/25 06:28:26;;;;;;;;;4.33;4.33;;;;;-143.90;69.63;73721.16;4955788;28;102425;-75
2023/08/25 06:30:52;;;;;;;;;2.67;2.00;;;;;-143.90;66.14;73700.50;4954667;27;104095;-77
2023/08/25 06:33:19;;;;;;;;;5.00;4.67;;;;;-143.90;68.25;73692.25;4958491;27;102087;-75
2023/08/25 06:35:46;;;;;;;;;5.00;5.00;;;;;-143.90;66.92;73683.97;4950549;28;102305;-75
2023/08/25 06:38:12;;;;;;;;;7.33;7.33;;;;;-143.90;67.84;73667.44;4954856;27;104136;-75
2023/08/25 06:40:39;;;;;;;;;6.33;5.00;;;;;-143.90;69.24;73646.78;4958881;28;103003;-76
2023/08/25 06:43:06;;;;;;;;;5.33;5.00;;;;;-143.90;67.45;73626.09;4951674;28;102164;-75
2023/08/25 06:45:32;;;;;;;;;8.67;8.00;;;;;-143.90;67.12;73621.97;4953322;28;102112;-76
2023/08/25 06:47:59;;;;;;;;;7.00;6.00;;;;;-143.90;69.75;73613.72;4956502;28;102213;-75
2023/08/25 06:50:26;;;;;;;;;6.67;6.67;;;;;-143.90;66.05;73605.44;4952897;27;104089;-76
2023/08/25 06:52:52;;;;;;;;;9.33;7.00;;;;;-143.90;66.83;73590.97;4953320;28;102936;-76
2023/08/25 06:55:19;;;;;;;;;9.00;7.67;;;;;-143.90;66.95;73584.78;4954876;28;102226;-76
2023/08/25 06:57:46;;;;;;;;;6.00;6.00;;;;;-143.90;66.33;73576.50;4954187;28;102597;-77
2023/08/25 07:00:14;;;;;;;;;7.33;6.67;;;;;-143.90;64.56;73557.91;4955352;27;104210;-77
2023/08/25 07:02:42;;;;;;;;;7.00;7.00;;;;;-143.90;69.06;73559.97;4957908;28;102866;-78
2023/08/25 07:05:11;;;;;;;;;8.33;8.33;;;;;-143.90;70.10;73578.56;4967999;28;102379;-77
2023/08/25 07:07:37;;;;;;;;;9.00;8.67;;;;;-143.90;69.50;73588.91;4954643;28;102204;-76
2023/08/25 07:10:05;;;;;;;;;7.33;7.00;;;;;-143.90;69.82;73580.63;4958444;28;104016;-76
2023/08/25 07:12:32;;;;;;;;;7.00;6.33;;;;;-143.90;69.60;73566.16;4954479;27;102043;-76
2023/08/25 07:14:58;;;;;;;;;6.00;6.00;;;;;-143.90;70.77;73559.97;4954950;28;102607;-76
2023/08/25 07:17:25;;;;;;;;;7.00;7.00;;;;;-143.90;71.76;73568.25;4949066;27;102281;-77
2023/08/25 07:19:52;;;;;;;;;6.67;6.00;;;;;-143.90;70.85;73580.63;4955273;27;104167;-76
2023/08/25 07:22:19;;;;;;;;;6.00;5.00;;;;;-143.90;68.69;73578.56;4963106;28;103482;-76
2023/08/25 07:24:47;;;;;;;;;4.67;4.00;;;;;-143.90;68.86;73570.31;4958670;28;102055;-76
2023/08/25 07:27:17;;;;;;;;;6.33;5.00;;;;;-143.90;68.77;73568.25;4957704;28;102130;-76
2023/08/25 07:29:43;;;;;;;;;3.00;3.00;;;;;-143.90;67.86;73559.97;4968371;27;103990;-77
2023/08/25 07:32:10;;;;;;;;;2.33;2.33;;;;;-143.90;65.57;73551.72;4970444;28;102546;-76
2023/08/25 07:34:37;;;;;;;;;3.00;3.00;;;;;-143.90;66.23;73541.38;4961349;28;102008;-76
2023/08/25 07:37:04;;;;;;;;;2.00;2.00;;;;;-143.90;65.55;73522.78;4963583;27;102677;-76
2023/08/25 07:39:30;;;;;;;;;2.00;2.00;;;;;-143.90;65.13;73518.66;4950714;28;103381;-76
2023/08/25 07:41:57;;;;;;;;;2.00;1.00;;;;;-143.90;65.74;73510.38;4951718;27;102248;-76
2023/08/25 07:44:23;;;;;;;;;2.00;2.00;;;;;-143.90;64.39;73497.97;4956511;28;102276;-76
2023/08/25 07:46:50;;;;;;;;;2.00;2.00;;;;;-143.90;64.74;73481.44;4953762;28;102167;-76
2023/08/25 07:49:17;;;;;;;;;3.00;3.00;;;;;-143.90;62.30;73460.78;4963928;27;104211;-76
2023/08/25 07:51:43;;;;;;;;;3.00;3.00;;;;;-143.90;62.17;73431.84;4961597;28;102502;-77
2023/08/25 07:54:10;;;;;;;;;4.33;4.00;;;;;-143.90;61.87;73396.72;4950920;28;102591;-76
2023/08/25 07:56:36;;;;;;;;;2.33;2.00;;;;;-143.90;61.00;73353.31;4952098;28;102058;-77
2023/08/25 07:59:03;;;;;;;;;5.33;5.33;;;;;-143.90;58.09;73328.53;4948413;28;104118;-77
2023/08/25 08:01:30;;;;;;;;;6.00;5.67;;;;;-143.90;58.30;73303.72;4951718;28;102069;-77
2023/08/25 08:03:57;;;;;;;;;8.33;7.00;;;;;-143.90;58.03;73287.19;4957165;28;101962;-77
2023/08/25 08:06:24;;;;;;;;;7.00;6.67;;;;;-143.90;57.14;73266.53;4944993;27;102169;-77
2023/08/25 08:08:51;;;;;;;;;5.00;4.00;;;;;-143.90;56.20;73264.47;4951845;28;103866;-76
2023/08/25 08:11:18;;;;;;;;;3.33;3.33;;;;;-143.90;55.88;73241.75;4959222;27;102719;-77
2023/08/25 08:13:45;;;;;;;;;7.00;7.00;;;;;-143.90;56.65;73225.19;4948643;28;101934;-77
2023/08/25 08:16:11;;;;;;;;;6.00;6.00;;;;;-143.90;55.35;73216.94;4954826;28;102294;-76
2023/08/25 08:18:38;;;;;;;;;6.33;6.00;;;;;-143.90;55.77;73192.16;4967601;28;107262;-77
2023/08/25 08:21:05;;;;;;;;;8.00;8.00;;;;;-143.90;55.79;73165.28;4948665;28;102722;-76
2023/08/25 08:23:32;;;;;;;;;9.00;6.00;;;;;-143.90;54.96;73138.41;4949376;28;102659;-75
2023/08/25 08:25:58;;;;;;;;;8.00;8.00;;;;;-143.90;53.47;73138.41;4950962;28;103210;-77
2023/08/25 08:28:25;;;;;;;;;6.67;6.67;;;;;-143.90;55.14;73148.75;4948311;27;104168;-76
2023/08/25 08:30:52;;;;;;;;;6.00;6.00;;;;;-143.90;54.63;73154.94;4961574;28;102210;-77
2023/08/25 08:33:19;;;;;;;;;8.00;8.00;;;;;-143.90;54.36;73165.28;4953315;28;102138;-77
2023/08/25 08:35:45;;;;;;;;;8.00;8.00;;;;;-143.90;54.64;73175.63;4945400;28;102566;-78
2023/08/25 08:38:12;;;;;;;;;5.33;5.33;;;;;-143.90;54.44;73163.22;4953156;28;104235;-77
2023/08/25 08:40:38;;;;;;;;;5.33;5.33;;;;;-143.90;55.34;73146.69;4958503;27;102519;-78
2023/08/25 08:43:07;;;;;;;;;6.33;6.33;;;;;-143.90;56.46;73121.88;4949466;28;101896;-76
2023/08/25 08:45:36;;;;;;;;;8.00;7.00;;;;;-143.90;54.17;73113.63;4966904;28;103825;-78
2023/08/25 08:48:07;;;;;;;;;10.67;10.33;;;;;-143.90;54.25;73105.34;4965147;28;103892;-76
2023/08/25 08:50:34;;;;;;;;;13.67;13.67;;;;;-143.90;53.12;73107.41;4952099;28;102148;-77
2023/08/25 08:53:04;;;;;;;;;14.67;12.00;;;;;-143.90;52.65;73128.09;4958938;28;103445;-80
2023/08/25 08:55:32;;;;;;;;;13.33;13.33;;;;;-143.90;51.84;73105.34;4952348;27;103064;-77
2023/08/25 08:57:59;;;;;;;;;15.00;14.00;;;;;-143.90;52.45;73115.69;4957230;28;104201;-77
2023/08/25 09:00:27;;;;;;;;;14.00;14.00;;;;;-143.90;52.59;73119.81;4955434;28;104342;-78
2023/08/25 09:02:58;;;;;;;;;11.67;11.67;;;;;-143.90;52.34;73097.09;4954142;28;102287;-77
2023/08/25 09:05:30;;;;;;;;;12.33;11.67;;;;;-143.90;53.34;73095.03;4958217;28;102439;-77
2023/08/25 09:08:00;;;;;;;;;10.33;10.33;;;;;-143.90;52.53;73078.50;4956824;27;104010;-77
2023/08/25 09:10:27;;;;;;;;;16.33;15.00;;;;;-143.90;52.89;73070.22;4948928;28;102425;-78
2023/08/25 09:12:54;;;;;;;;;18.00;15.67;;;;;-143.90;53.20;73078.50;4957752;28;102713;-78
2023/08/25 09:15:31;;;;;;;;;14.00;14.00;;;;;-143.90;52.34;73066.09;4957007;28;102484;-77
2023/08/25 09:18:07;;;;;;;;;15.00;14.00;;;;;-143.90;53.68;73039.22;4980182;27;104149;-78
2023/08/25 09:20:39;;;;;;;;;12.00;10.33;;;;;-143.90;54.14;73039.22;4944378;27;102322;-77
2023/08/25 09:23:08;;;;;;;;;12.33;12.00;;;;;-143.90;54.07;73041.31;4938970;28;102093;-78
2023/08/25 09:25:34;;;;;;;;;14.00;12.00;;;;;-143.90;53.68;73022.69;4948644;27;102346;-77
2023/08/25 09:28:03;;;;;;;;;9.67;9.67;;;;;-143.90;55.07;73010.31;4960679;27;104269;-77
2023/08/25 09:30:39;;;;;;;;;11.67;11.00;;;;;-143.90;52.79;72993.78;4947843;28;102475;-78
2023/08/25 09:33:08;;;;;;;;;13.33;13.00;;;;;-143.90;52.78;72981.38;4947937;28;102529;-75
2023/08/25 09:35:35;;;;;;;;;15.00;14.00;;;;;-143.90;55.44;72964.84;4967125;28;102361;-77
2023/08/25 09:38:04;;;;;;;;;16.00;13.67;;;;;-143.90;53.29;72950.38;4957345;27;104031;-80
2023/08/25 09:40:31;;;;;;;;;15.00;14.00;;;;;-143.90;54.09;72933.84;4951860;28;102205;-76
2023/08/25 09:42:59;;;;;;;;;14.00;14.00;;;;;-143.90;52.90;72927.66;4952269;28;102388;-77
2023/08/25 09:45:31;;;;;;;;;12.00;12.00;;;;;-143.90;54.24;72898.72;4957104;27;102956;-75
2023/08/25 09:48:08;;;;;;;;;12.67;12.00;;;;;-143.90;54.06;72886.34;4962354;28;104240;-76
2023/08/25 09:50:39;;;;;;;;;11.33;10.67;;;;;-143.90;52.47;72867.72;4964649;28;102301;-76
2023/08/25 09:53:07;;;;;;;;;13.00;13.00;;;;;-143.90;53.06;72859.47;4972781;28;102068;-77
2023/08/25 09:55:38;;;;;;;;;11.00;11.00;;;;;-143.90;51.53;72830.53;4964941;28;102309;-75
2023/08/25 09:58:06;;;;;;;;;13.00;12.00;;;;;-143.90;50.77;72822.28;4960656;28;104259;-76
2023/08/25 10:00:35;;;;;;;;;15.00;14.67;;;;;-143.90;50.53;72824.34;4930338;28;102413;-77
2023/08/25 10:03:10;;;;;;;;;13.33;13.33;;;;;-143.90;49.54;72826.41;4951911;28;101869;-74
2023/08/25 10:05:38;;;;;;;;;13.67;12.67;;;;;-143.90;50.46;72836.75;4937915;27;102224;-74
2023/08/25 10:08:07;;;;;;;;;15.33;14.67;;;;;-143.90;50.49;72845.00;4947750;28;104236;-76
2023/08/25 10:10:36;;;;;;;;;14.67;13.67;;;;;-143.90;51.72;72820.22;4951943;28;102371;-76
2023/08/25 10:13:04;;;;;;;;;14.33;14.00;;;;;-143.90;51.07;72822.28;4975073;28;104131;-74
2023/08/25 10:15:32;;;;;;;;;14.67;14.67;;;;;-143.90;51.78;72826.41;4947420;28;102212;-77
2023/08/25 10:18:06;;;;;;;;;19.50;17.00;;;;;-143.90;49.20;72824.34;4951734;27;104131;-75
2023/08/25 10:20:35;;;;;;;;;17.67;17.67;;;;;-143.90;50.26;72826.41;4949215;28;102527;-77
2023/08/25 10:23:09;;;;;;;;;17.00;17.00;;;;;-143.90;49.97;72820.22;4962942;28;102260;-75
2023/08/25 10:25:40;;;;;;;;;18.67;16.00;;;;;-143.90;50.94;72807.81;4949422;28;103851;-77
2023/08/25 10:28:09;;;;;;;;;20.00;19.00;;;;;-143.90;49.89;72824.34;4937613;27;104336;-76
2023/08/25 10:30:36;;;;;;;;;15.00;15.00;;;;;-143.90;50.94;72816.06;4959221;27;101841;-77
2023/08/25 10:33:11;;;;;;;;;19.33;18.67;;;;;-143.90;49.21;72824.34;4958009;28;102342;-76
2023/08/25 10:35:47;;;;;;;;;16.00;14.33;;;;;-143.90;50.66;72832.59;4950544;28;102707;-76
2023/08/25 10:38:22;;;;;;;;;16.00;15.33;;;;;-143.90;51.90;72828.47;4961389;28;108856;-78
2023/08/25 10:40:53;;;;;;;;;17.00;16.67;;;;;-143.90;50.86;72809.88;4955496;27;103643;-76
2023/08/25 10:43:30;;;;;;;;;14.33;13.00;;;;;-143.90;51.13;72795.41;4948042;28;102454;-76
2023/08/25 10:46:06;;;;;;;;;16.00;16.00;;;;;-143.90;49.79;72780.97;4947109;28;103495;-76
2023/08/25 10:48:34;;;;;;;;;14.33;13.00;;;;;-143.90;50.83;72766.50;4945652;28;105954;-76
2023/08/25 10:51:11;;;;;;;;;15.00;14.00;;;;;-143.90;50.38;72756.16;4950510;28;102265;-76
2023/08/25 10:53:51;;;;;;;;;15.00;13.00;;;;;-143.90;49.23;72745.84;4947594;27;102226;-78
2023/08/25 10:56:17;;;;;;;;;14.00;14.00;;;;;-143.90;49.14;72733.44;4966861;27;103765;-77
2023/08/25 10:59:09;;;;;;;;;12.00;12.00;;;;;-143.90;48.99;72733.44;4953109;28;108736;-76
2023/08/25 11:01:36;;;;;;;;;12.67;11.67;;;;;-143.90;49.93;72733.44;4952155;28;102583;-75
2023/08/25 11:04:11;;;;;;;;;15.00;14.33;;;;;-143.90;49.16;72735.50;4953382;27;102516;-78
2023/08/25 11:06:44;;;;;;;;;18.00;16.33;;;;;-143.90;49.45;72745.84;4955305;28;102073;-76
2023/08/25 11:09:37;;;;;;;;;9.00;8.33;;;;;-143.90;49.47;72737.56;4948527;28;104278;-76